sensor_id;sensor_type;location;lat;lon;timestamp;P1;durP1;ratioP1;P2;durP2;ratioP2
4182;SDS011;2105;52.300;9.182;2023-02-22T06:06:02;45.70;;;21.80;;
4182;SDS011;2105;52.300;9.182;2023-02-22T06:08:31;44.37;;;22.53;;
4182;SDS011;2105;52.300;9.182;2023-02-22T06:10:58;42.90;;;22.23;;
4182;SDS011;2105;52.300;9.182;2023-02-22T06:13:25;47.13;;;21.57;;
4182;SDS011;2105;52.300;9.182;2023-02-22T06:15:53;42.23;;;22.60;;
4182;SDS011;2105;52.300;9.182;2023-02-22T06:18:20;41.27;;;20.90;;
4182;SDS011;2105;52.300;9.182;2023-02-22T06:20:50;46.20;;;22.67;;
4182;SDS011;2105;52.300;9.182;2023-02-22T06:23:21;44.50;;;23.07;;
4182;SDS011;2105;52.300;9.182;2023-02-22T06:25:49;36.83;;;21.40;;
4182;SDS011;2105;52.300;9.182;2023-02-22T06:28:16;39.70;;;23.33;;
4182;SDS011;2105;52.300;9.182;2023-02-22T06:30:43;50.83;;;25.20;;
4182;SDS011;2105;52.300;9.182;2023-02-22T07:18:58;44.83;;;20.37;;
4182;SDS011;2105;52.300;9.182;2023-02-22T07:21:25;39.07;;;21.63;;
4182;SDS011;2105;52.300;9.182;2023-02-22T07:23:52;40.53;;;21.53;;
4182;SDS011;2105;52.300;9.182;2023-02-22T07:26:20;40.23;;;22.10;;
4182;SDS011;2105;52.300;9.182;2023-02-22T07:28:48;34.60;;;21.67;;
4182;SDS011;2105;52.300;9.182;2023-02-22T07:31:14;39.37;;;21.90;;
4182;SDS011;2105;52.300;9.182;2023-02-22T07:33:44;40.80;;;23.63;;
4182;SDS011;2105;52.300;9.182;2023-02-22T07:36:12;34.93;;;22.40;;
4182;SDS011;2105;52.300;9.182;2023-02-22T07:38:41;39.27;;;22.13;;
4182;SDS011;2105;52.300;9.182;2023-02-22T07:41:08;37.43;;;22.07;;
4182;SDS011;2105;52.300;9.182;2023-02-22T07:43:35;34.47;;;22.03;;
4182;SDS011;2105;52.300;9.182;2023-02-22T07:46:01;31.80;;;21.60;;
4182;SDS011;2105;52.300;9.182;2023-02-22T07:48:29;30.33;;;21.00;;
4182;SDS011;2105;52.300;9.182;2023-02-22T07:50:56;40.73;;;21.57;;
4182;SDS011;2105;52.300;9.182;2023-02-22T07:53:25;36.73;;;22.47;;
4182;SDS011;2105;52.300;9.182;2023-02-22T07:55:54;36.53;;;22.63;;
4182;SDS011;2105;52.300;9.182;2023-02-22T07:58:21;36.17;;;22.10;;
4182;SDS011;2105;52.300;9.182;2023-02-22T08:00:51;37.00;;;22.83;;
4182;SDS011;2105;52.300;9.182;2023-02-22T08:03:18;35.60;;;22.13;;
4182;SDS011;2105;52.300;9.182;2023-02-22T08:05:48;42.90;;;22.07;;
4182;SDS011;2105;52.300;9.182;2023-02-22T08:08:16;33.60;;;21.97;;
4182;SDS011;2105;52.300;9.182;2023-02-22T08:10:44;35.33;;;23.10;;
4182;SDS011;2105;52.300;9.182;2023-02-22T08:13:10;34.17;;;23.53;;
4182;SDS011;2105;52.300;9.182;2023-02-22T08:15:38;37.10;;;21.83;;
4182;SDS011;2105;52.300;9.182;2023-02-22T08:18:06;37.37;;;23.10;;
4182;SDS011;2105;52.300;9.182;2023-02-22T08:20:35;34.00;;;23.30;;
4182;SDS011;2105;52.300;9.182;2023-02-22T08:23:02;33.30;;;22.67;;
4182;SDS011;2105;52.300;9.182;2023-02-22T08:25:29;36.63;;;24.67;;
4182;SDS011;2105;52.300;9.182;2023-02-22T08:27:58;35.67;;;22.90;;
4182;SDS011;2105;52.300;9.182;2023-02-22T08:30:27;41.40;;;24.00;;
4182;SDS011;2105;52.300;9.182;2023-02-22T08:32:55;39.77;;;25.87;;
4182;SDS011;2105;52.300;9.182;2023-02-22T08:35:22;34.80;;;24.17;;
4182;SDS011;2105;52.300;9.182;2023-02-22T08:37:51;34.07;;;23.57;;
4182;SDS011;2105;52.300;9.182;2023-02-22T08:40:19;37.77;;;24.00;;
4182;SDS011;2105;52.300;9.182;2023-02-22T08:42:47;35.20;;;24.40;;
4182;SDS011;2105;52.300;9.182;2023-02-22T08:45:16;40.83;;;24.00;;
4182;SDS011;2105;52.300;9.182;2023-02-22T08:47:43;43.60;;;25.80;;
4182;SDS011;2105;52.300;9.182;2023-02-22T08:50:13;39.03;;;25.93;;
4182;SDS011;2105;52.300;9.182;2023-02-22T08:52:42;40.80;;;26.63;;
4182;SDS011;2105;52.300;9.182;2023-02-22T08:55:08;37.33;;;25.43;;
4182;SDS011;2105;52.300;9.182;2023-02-22T08:57:35;39.37;;;25.13;;
4182;SDS011;2105;52.300;9.182;2023-02-22T09:00:03;38.17;;;24.37;;
4182;SDS011;2105;52.300;9.182;2023-02-22T09:02:31;37.03;;;25.40;;
4182;SDS011;2105;52.300;9.182;2023-02-22T09:04:58;36.37;;;24.03;;
4182;SDS011;2105;52.300;9.182;2023-02-22T09:07:24;37.97;;;25.10;;
4182;SDS011;2105;52.300;9.182;2023-02-22T09:09:51;39.53;;;25.07;;
4182;SDS011;2105;52.300;9.182;2023-02-22T09:12:18;37.50;;;25.77;;
4182;SDS011;2105;52.300;9.182;2023-02-22T09:14:44;41.33;;;25.83;;
4182;SDS011;2105;52.300;9.182;2023-02-22T09:17:11;37.43;;;25.03;;
4182;SDS011;2105;52.300;9.182;2023-02-22T09:19:39;40.27;;;25.77;;
4182;SDS011;2105;52.300;9.182;2023-02-22T09:22:05;41.07;;;26.30;;
4182;SDS011;2105;52.300;9.182;2023-02-22T09:24:32;45.10;;;26.33;;
4182;SDS011;2105;52.300;9.182;2023-02-22T09:27:00;34.67;;;24.33;;
4182;SDS011;2105;52.300;9.182;2023-02-22T09:29:28;38.80;;;26.60;;
4182;SDS011;2105;52.300;9.182;2023-02-22T09:31:55;41.07;;;26.60;;
4182;SDS011;2105;52.300;9.182;2023-02-22T09:34:23;42.83;;;25.20;;
4182;SDS011;2105;52.300;9.182;2023-02-22T09:36:55;45.00;;;27.67;;
4182;SDS011;2105;52.300;9.182;2023-02-22T09:39:22;42.30;;;25.90;;
4182;SDS011;2105;52.300;9.182;2023-02-22T09:41:50;41.67;;;24.93;;
4182;SDS011;2105;52.300;9.182;2023-02-22T09:44:24;41.90;;;25.60;;
4182;SDS011;2105;52.300;9.182;2023-02-22T09:47:00;42.67;;;27.17;;
4182;SDS011;2105;52.300;9.182;2023-02-22T09:49:28;50.67;;;27.17;;
4182;SDS011;2105;52.300;9.182;2023-02-22T09:52:03;47.40;;;26.90;;
4182;SDS011;2105;52.300;9.182;2023-02-22T09:54:38;45.50;;;28.00;;
4182;SDS011;2105;52.300;9.182;2023-02-22T09:57:09;46.70;;;27.90;;
4182;SDS011;2105;52.300;9.182;2023-02-22T09:59:41;51.00;;;28.87;;
4182;SDS011;2105;52.300;9.182;2023-02-22T10:02:16;49.60;;;30.20;;
4182;SDS011;2105;52.300;9.182;2023-02-22T10:04:50;43.03;;;26.33;;
4182;SDS011;2105;52.300;9.182;2023-02-22T10:07:23;43.07;;;26.93;;
4182;SDS011;2105;52.300;9.182;2023-02-22T10:09:57;47.93;;;28.33;;
4182;SDS011;2105;52.300;9.182;2023-02-22T10:12:32;40.93;;;26.47;;
4182;SDS011;2105;52.300;9.182;2023-02-22T10:15:09;40.20;;;29.00;;
4182;SDS011;2105;52.300;9.182;2023-02-22T10:17:56;42.30;;;28.10;;
4182;SDS011;2105;52.300;9.182;2023-02-22T10:20:38;41.23;;;28.90;;
4182;SDS011;2105;52.300;9.182;2023-02-22T10:23:16;43.70;;;28.60;;
4182;SDS011;2105;52.300;9.182;2023-02-22T10:25:52;44.63;;;28.77;;
4182;SDS011;2105;52.300;9.182;2023-02-22T10:28:23;42.63;;;29.67;;
4182;SDS011;2105;52.300;9.182;2023-02-22T10:30:55;41.50;;;29.37;;
4182;SDS011;2105;52.300;9.182;2023-02-22T10:33:28;45.97;;;31.10;;
4182;SDS011;2105;52.300;9.182;2023-02-22T10:35:57;48.50;;;29.10;;
4182;SDS011;2105;52.300;9.182;2023-02-22T10:38:26;58.53;;;30.23;;
4182;SDS011;2105;52.300;9.182;2023-02-22T10:40:55;44.83;;;31.30;;
4182;SDS011;2105;52.300;9.182;2023-02-22T10:43:26;41.30;;;29.10;;
4182;SDS011;2105;52.300;9.182;2023-02-22T10:45:54;43.30;;;29.93;;
4182;SDS011;2105;52.300;9.182;2023-02-22T10:48:25;45.20;;;31.03;;
4182;SDS011;2105;52.300;9.182;2023-02-22T10:50:56;42.90;;;28.30;;
4182;SDS011;2105;52.300;9.182;2023-02-22T10:53:27;42.33;;;28.80;;
4182;SDS011;2105;52.300;9.182;2023-02-22T10:56:04;45.50;;;31.43;;
4182;SDS011;2105;52.300;9.182;2023-02-22T10:58:38;39.77;;;28.70;;
4182;SDS011;2105;52.300;9.182;2023-02-22T11:01:16;43.40;;;28.70;;
4182;SDS011;2105;52.300;9.182;2023-02-22T11:03:55;42.27;;;29.20;;
4182;SDS011;2105;52.300;9.182;2023-02-22T11:06:23;42.83;;;28.77;;
4182;SDS011;2105;52.300;9.182;2023-02-22T11:08:53;41.10;;;29.23;;
4182;SDS011;2105;52.300;9.182;2023-02-22T11:11:35;36.60;;;28.13;;
4182;SDS011;2105;52.300;9.182;2023-02-22T11:14:02;38.87;;;28.57;;
4182;SDS011;2105;52.300;9.182;2023-02-22T11:16:31;36.73;;;26.63;;
4182;SDS011;2105;52.300;9.182;2023-02-22T11:19:00;35.90;;;26.83;;
4182;SDS011;2105;52.300;9.182;2023-02-22T11:21:28;40.37;;;29.00;;
4182;SDS011;2105;52.300;9.182;2023-02-22T11:24:01;39.57;;;27.00;;
4182;SDS011;2105;52.300;9.182;2023-02-22T11:26:35;40.27;;;26.73;;
4182;SDS011;2105;52.300;9.182;2023-02-22T11:29:09;38.63;;;29.33;;
4182;SDS011;2105;52.300;9.182;2023-02-22T11:31:40;34.07;;;27.27;;
4182;SDS011;2105;52.300;9.182;2023-02-22T11:34:23;34.73;;;27.00;;
4182;SDS011;2105;52.300;9.182;2023-02-22T11:36:55;35.03;;;26.53;;
4182;SDS011;2105;52.300;9.182;2023-02-22T11:39:40;38.00;;;27.00;;
4182;SDS011;2105;52.300;9.182;2023-02-22T11:42:19;37.87;;;26.63;;
4182;SDS011;2105;52.300;9.182;2023-02-22T11:44:48;33.23;;;26.87;;
4182;SDS011;2105;52.300;9.182;2023-02-22T11:47:32;33.10;;;25.50;;
4182;SDS011;2105;52.300;9.182;2023-02-22T11:49:59;33.33;;;26.97;;
4182;SDS011;2105;52.300;9.182;2023-02-22T11:52:27;34.40;;;25.43;;
4182;SDS011;2105;52.300;9.182;2023-02-22T11:55:06;35.43;;;25.50;;
4182;SDS011;2105;52.300;9.182;2023-02-22T11:57:48;31.70;;;25.60;;
4182;SDS011;2105;52.300;9.182;2023-02-22T12:00:29;35.00;;;26.37;;
4182;SDS011;2105;52.300;9.182;2023-02-22T12:03:28;31.07;;;25.40;;
4182;SDS011;2105;52.300;9.182;2023-02-22T12:06:20;31.37;;;26.00;;
4182;SDS011;2105;52.300;9.182;2023-02-22T12:09:02;32.83;;;26.83;;
4182;SDS011;2105;52.300;9.182;2023-02-22T12:11:42;33.33;;;25.13;;
4182;SDS011;2105;52.300;9.182;2023-02-22T12:14:20;34.67;;;25.47;;
4182;SDS011;2105;52.300;9.182;2023-02-22T12:17:07;31.53;;;25.67;;
4182;SDS011;2105;52.300;9.182;2023-02-22T12:19:43;33.83;;;26.03;;
4182;SDS011;2105;52.300;9.182;2023-02-22T12:22:15;31.07;;;25.47;;
4182;SDS011;2105;52.300;9.182;2023-02-22T12:24:45;35.57;;;26.17;;
4182;SDS011;2105;52.300;9.182;2023-02-22T12:27:17;30.73;;;25.20;;
4182;SDS011;2105;52.300;9.182;2023-02-22T12:29:51;34.27;;;25.70;;
4182;SDS011;2105;52.300;9.182;2023-02-22T12:32:24;32.93;;;25.90;;
4182;SDS011;2105;52.300;9.182;2023-02-22T12:34:58;32.70;;;25.73;;
4182;SDS011;2105;52.300;9.182;2023-02-22T12:37:30;37.73;;;27.07;;
4182;SDS011;2105;52.300;9.182;2023-02-22T12:40:15;31.57;;;25.97;;
4182;SDS011;2105;52.300;9.182;2023-02-22T12:42:51;28.97;;;25.70;;
4182;SDS011;2105;52.300;9.182;2023-02-22T12:45:25;25.77;;;23.00;;
4182;SDS011;2105;52.300;9.182;2023-02-22T12:47:58;27.40;;;24.60;;
4182;SDS011;2105;52.300;9.182;2023-02-22T12:50:32;30.00;;;25.60;;
4182;SDS011;2105;52.300;9.182;2023-02-22T12:53:03;29.33;;;23.70;;
4182;SDS011;2105;52.300;9.182;2023-02-22T12:55:39;29.93;;;24.57;;
4182;SDS011;2105;52.300;9.182;2023-02-22T12:58:16;27.47;;;23.10;;
4182;SDS011;2105;52.300;9.182;2023-02-22T13:00:49;28.10;;;23.70;;
4182;SDS011;2105;52.300;9.182;2023-02-22T13:03:25;27.10;;;23.20;;
4182;SDS011;2105;52.300;9.182;2023-02-22T13:06:00;24.53;;;21.93;;
4182;SDS011;2105;52.300;9.182;2023-02-22T13:08:36;26.20;;;23.17;;
4182;SDS011;2105;52.300;9.182;2023-02-22T13:11:13;33.90;;;24.13;;
4182;SDS011;2105;52.300;9.182;2023-02-22T13:13:51;32.87;;;23.47;;
4182;SDS011;2105;52.300;9.182;2023-02-22T13:16:30;27.43;;;24.20;;
4182;SDS011;2105;52.300;9.182;2023-02-22T13:19:05;26.77;;;23.93;;
4182;SDS011;2105;52.300;9.182;2023-02-22T13:21:42;27.13;;;23.80;;
4182;SDS011;2105;52.300;9.182;2023-02-22T13:24:15;26.37;;;22.83;;
4182;SDS011;2105;52.300;9.182;2023-02-22T13:26:47;28.43;;;23.17;;
4182;SDS011;2105;52.300;9.182;2023-02-22T13:29:19;25.93;;;23.13;;
4182;SDS011;2105;52.300;9.182;2023-02-22T13:32:04;26.07;;;22.03;;
4182;SDS011;2105;52.300;9.182;2023-02-22T13:34:48;28.03;;;24.33;;
4182;SDS011;2105;52.300;9.182;2023-02-22T13:40:41;25.80;;;22.37;;
4182;SDS011;2105;52.300;9.182;2023-02-22T13:46:36;25.20;;;22.60;;
4182;SDS011;2105;52.300;9.182;2023-02-22T13:49:26;24.50;;;22.10;;
4182;SDS011;2105;52.300;9.182;2023-02-22T13:52:07;24.20;;;21.80;;
4182;SDS011;2105;52.300;9.182;2023-02-22T13:54:39;24.43;;;22.13;;
4182;SDS011;2105;52.300;9.182;2023-02-22T13:57:18;24.43;;;22.10;;
4182;SDS011;2105;52.300;9.182;2023-02-22T13:59:48;24.47;;;21.87;;
4182;SDS011;2105;52.300;9.182;2023-02-22T14:02:58;23.10;;;20.80;;
4182;SDS011;2105;52.300;9.182;2023-02-22T14:05:46;23.03;;;20.83;;
4182;SDS011;2105;52.300;9.182;2023-02-22T14:11:05;23.60;;;21.40;;
4182;SDS011;2105;52.300;9.182;2023-02-22T14:14:13;40.83;;;21.80;;
4182;SDS011;2105;52.300;9.182;2023-02-22T14:16:42;23.23;;;20.97;;
4182;SDS011;2105;52.300;9.182;2023-02-22T14:19:14;23.57;;;21.17;;
4182;SDS011;2105;52.300;9.182;2023-02-22T14:21:53;23.43;;;21.33;;
4182;SDS011;2105;52.300;9.182;2023-02-22T14:24:22;25.47;;;21.33;;
4182;SDS011;2105;52.300;9.182;2023-02-22T14:26:56;23.27;;;21.00;;
4182;SDS011;2105;52.300;9.182;2023-02-22T14:29:25;24.20;;;21.30;;
4182;SDS011;2105;52.300;9.182;2023-02-22T14:31:55;23.93;;;21.63;;
4182;SDS011;2105;52.300;9.182;2023-02-22T14:34:39;23.80;;;21.37;;
4182;SDS011;2105;52.300;9.182;2023-02-22T14:37:10;24.00;;;21.50;;
4182;SDS011;2105;52.300;9.182;2023-02-22T14:39:40;24.00;;;21.73;;
4182;SDS011;2105;52.300;9.182;2023-02-22T14:42:11;24.53;;;21.10;;
4182;SDS011;2105;52.300;9.182;2023-02-22T14:44:42;23.80;;;21.50;;
4182;SDS011;2105;52.300;9.182;2023-02-22T14:47:18;23.70;;;21.40;;
4182;SDS011;2105;52.300;9.182;2023-02-22T14:49:53;23.40;;;20.93;;
4182;SDS011;2105;52.300;9.182;2023-02-22T14:52:28;29.43;;;21.20;;
4182;SDS011;2105;52.300;9.182;2023-02-22T14:55:01;24.57;;;22.27;;
4182;SDS011;2105;52.300;9.182;2023-02-22T14:57:34;24.67;;;21.50;;
4182;SDS011;2105;52.300;9.182;2023-02-22T15:00:12;23.90;;;20.73;;
4182;SDS011;2105;52.300;9.182;2023-02-22T15:02:54;22.73;;;20.60;;
4182;SDS011;2105;52.300;9.182;2023-02-22T15:05:25;23.57;;;21.30;;
4182;SDS011;2105;52.300;9.182;2023-02-22T15:07:56;22.67;;;20.37;;
4182;SDS011;2105;52.300;9.182;2023-02-22T15:10:25;22.30;;;20.17;;
4182;SDS011;2105;52.300;9.182;2023-02-22T15:12:55;23.10;;;20.80;;
4182;SDS011;2105;52.300;9.182;2023-02-22T15:15:34;23.40;;;21.10;;
4182;SDS011;2105;52.300;9.182;2023-02-22T15:18:02;23.30;;;20.90;;
4182;SDS011;2105;52.300;9.182;2023-02-22T15:20:34;24.67;;;20.13;;
4182;SDS011;2105;52.300;9.182;2023-02-22T15:23:03;22.60;;;20.30;;
4182;SDS011;2105;52.300;9.182;2023-02-22T15:25:30;22.90;;;20.60;;
4182;SDS011;2105;52.300;9.182;2023-02-22T15:28:02;21.30;;;19.47;;
4182;SDS011;2105;52.300;9.182;2023-02-22T15:30:33;20.97;;;19.07;;
4182;SDS011;2105;52.300;9.182;2023-02-22T15:33:10;29.10;;;20.00;;
4182;SDS011;2105;52.300;9.182;2023-02-22T15:35:41;21.27;;;19.37;;
4182;SDS011;2105;52.300;9.182;2023-02-22T15:38:16;21.53;;;19.53;;
4182;SDS011;2105;52.300;9.182;2023-02-22T15:40:45;21.77;;;19.50;;
4182;SDS011;2105;52.300;9.182;2023-02-22T15:43:23;22.43;;;20.37;;
4182;SDS011;2105;52.300;9.182;2023-02-22T15:45:52;20.60;;;18.90;;
4182;SDS011;2105;52.300;9.182;2023-02-22T15:48:20;21.40;;;19.30;;
4182;SDS011;2105;52.300;9.182;2023-02-22T15:50:58;21.37;;;19.47;;
4182;SDS011;2105;52.300;9.182;2023-02-22T15:53:31;21.50;;;19.60;;
4182;SDS011;2105;52.300;9.182;2023-02-22T15:56:04;21.53;;;19.27;;
4182;SDS011;2105;52.300;9.182;2023-02-22T15:58:35;21.40;;;19.40;;
4182;SDS011;2105;52.300;9.182;2023-02-22T16:01:03;20.80;;;18.70;;
4182;SDS011;2105;52.300;9.182;2023-02-22T16:03:33;21.10;;;19.10;;
4182;SDS011;2105;52.300;9.182;2023-02-22T16:06:10;20.30;;;18.40;;
4182;SDS011;2105;52.300;9.182;2023-02-22T16:08:40;21.97;;;19.70;;
4182;SDS011;2105;52.300;9.182;2023-02-22T16:11:13;21.23;;;19.13;;
4182;SDS011;2105;52.300;9.182;2023-02-22T16:13:50;19.80;;;17.70;;
4182;SDS011;2105;52.300;9.182;2023-02-22T16:16:20;19.53;;;17.50;;
4182;SDS011;2105;52.300;9.182;2023-02-22T16:18:49;19.40;;;17.60;;
4182;SDS011;2105;52.300;9.182;2023-02-22T16:21:19;21.07;;;18.93;;
4182;SDS011;2105;52.300;9.182;2023-02-22T16:23:47;19.37;;;17.57;;
4182;SDS011;2105;52.300;9.182;2023-02-22T16:26:18;20.70;;;18.17;;
4182;SDS011;2105;52.300;9.182;2023-02-22T16:28:54;18.73;;;16.93;;
4182;SDS011;2105;52.300;9.182;2023-02-22T16:31:23;50.23;;;22.00;;
4182;SDS011;2105;52.300;9.182;2023-02-22T16:33:51;22.30;;;17.40;;
4182;SDS011;2105;52.300;9.182;2023-02-22T16:36:22;22.50;;;16.60;;
4182;SDS011;2105;52.300;9.182;2023-02-22T16:39:03;17.20;;;15.70;;
4182;SDS011;2105;52.300;9.182;2023-02-22T16:41:31;21.60;;;17.23;;
4182;SDS011;2105;52.300;9.182;2023-02-22T16:43:58;21.33;;;15.90;;
4182;SDS011;2105;52.300;9.182;2023-02-22T16:46:26;17.70;;;16.17;;
4182;SDS011;2105;52.300;9.182;2023-02-22T16:48:53;17.93;;;16.17;;
4182;SDS011;2105;52.300;9.182;2023-02-22T16:51:21;16.23;;;14.83;;
4182;SDS011;2105;52.300;9.182;2023-02-22T16:53:51;16.60;;;14.90;;
4182;SDS011;2105;52.300;9.182;2023-02-22T16:56:20;16.53;;;14.93;;
4182;SDS011;2105;52.300;9.182;2023-02-22T16:58:50;16.03;;;14.73;;
4182;SDS011;2105;52.300;9.182;2023-02-22T17:01:17;15.63;;;14.17;;
4182;SDS011;2105;52.300;9.182;2023-02-22T17:03:47;20.20;;;15.40;;
4182;SDS011;2105;52.300;9.182;2023-02-22T17:06:14;20.00;;;15.90;;
4182;SDS011;2105;52.300;9.182;2023-02-22T17:08:43;17.43;;;15.50;;
4182;SDS011;2105;52.300;9.182;2023-02-22T17:11:10;16.27;;;14.53;;
4182;SDS011;2105;52.300;9.182;2023-02-22T17:13:39;15.30;;;13.93;;
4182;SDS011;2105;52.300;9.182;2023-02-22T17:16:06;14.13;;;12.93;;
4182;SDS011;2105;52.300;9.182;2023-02-22T17:18:38;14.60;;;13.43;;
4182;SDS011;2105;52.300;9.182;2023-02-22T17:21:04;14.37;;;13.17;;
4182;SDS011;2105;52.300;9.182;2023-02-22T17:23:31;14.80;;;13.53;;
4182;SDS011;2105;52.300;9.182;2023-02-22T17:25:59;14.87;;;13.37;;
4182;SDS011;2105;52.300;9.182;2023-02-22T17:28:27;14.63;;;13.23;;
4182;SDS011;2105;52.300;9.182;2023-02-22T17:30:55;16.17;;;14.50;;
4182;SDS011;2105;52.300;9.182;2023-02-22T17:33:25;19.03;;;14.70;;
4182;SDS011;2105;52.300;9.182;2023-02-22T17:35:54;24.73;;;15.17;;
4182;SDS011;2105;52.300;9.182;2023-02-22T17:38:21;18.40;;;16.20;;
4182;SDS011;2105;52.300;9.182;2023-02-22T17:40:50;17.87;;;16.10;;
4182;SDS011;2105;52.300;9.182;2023-02-22T17:43:19;16.50;;;15.03;;
4182;SDS011;2105;52.300;9.182;2023-02-22T17:45:47;17.70;;;16.00;;
4182;SDS011;2105;52.300;9.182;2023-02-22T17:48:15;15.83;;;14.33;;
4182;SDS011;2105;52.300;9.182;2023-02-22T17:50:43;15.97;;;14.07;;
4182;SDS011;2105;52.300;9.182;2023-02-22T17:53:13;15.53;;;14.13;;
4182;SDS011;2105;52.300;9.182;2023-02-22T17:55:42;15.67;;;14.20;;
4182;SDS011;2105;52.300;9.182;2023-02-22T17:58:10;14.97;;;13.67;;
4182;SDS011;2105;52.300;9.182;2023-02-22T18:00:40;16.00;;;14.40;;
4182;SDS011;2105;52.300;9.182;2023-02-22T18:03:10;15.23;;;13.63;;
4182;SDS011;2105;52.300;9.182;2023-02-22T18:05:40;14.50;;;13.00;;
4182;SDS011;2105;52.300;9.182;2023-02-22T18:08:10;14.80;;;13.40;;
4182;SDS011;2105;52.300;9.182;2023-02-22T18:10:37;15.87;;;14.07;;
4182;SDS011;2105;52.300;9.182;2023-02-22T18:13:06;15.70;;;14.30;;
4182;SDS011;2105;52.300;9.182;2023-02-22T18:15:33;15.27;;;13.87;;
4182;SDS011;2105;52.300;9.182;2023-02-22T18:18:01;14.80;;;13.50;;
4182;SDS011;2105;52.300;9.182;2023-02-22T18:20:29;15.30;;;13.90;;
4182;SDS011;2105;52.300;9.182;2023-02-22T18:23:02;15.33;;;14.00;;
4182;SDS011;2105;52.300;9.182;2023-02-22T18:25:31;15.87;;;14.20;;
4182;SDS011;2105;52.300;9.182;2023-02-22T18:27:58;16.17;;;14.47;;
4182;SDS011;2105;52.300;9.182;2023-02-22T18:30:24;15.53;;;13.67;;
4182;SDS011;2105;52.300;9.182;2023-02-22T18:32:51;15.00;;;13.70;;
4182;SDS011;2105;52.300;9.182;2023-02-22T18:35:19;16.10;;;13.53;;
4182;SDS011;2105;52.300;9.182;2023-02-22T18:37:45;16.00;;;14.60;;
4182;SDS011;2105;52.300;9.182;2023-02-22T18:40:12;15.43;;;14.10;;
4182;SDS011;2105;52.300;9.182;2023-02-22T18:42:39;15.33;;;14.03;;
4182;SDS011;2105;52.300;9.182;2023-02-22T18:45:06;15.73;;;14.37;;
4182;SDS011;2105;52.300;9.182;2023-02-22T18:47:36;15.73;;;14.10;;
4182;SDS011;2105;52.300;9.182;2023-02-22T18:50:05;15.57;;;14.17;;
4182;SDS011;2105;52.300;9.182;2023-02-22T18:52:33;15.93;;;14.40;;
4182;SDS011;2105;52.300;9.182;2023-02-22T18:55:08;16.27;;;14.87;;
4182;SDS011;2105;52.300;9.182;2023-02-22T18:57:35;18.60;;;15.43;;
4182;SDS011;2105;52.300;9.182;2023-02-22T19:00:02;17.23;;;15.50;;
4182;SDS011;2105;52.300;9.182;2023-02-22T19:02:29;21.10;;;16.37;;
4182;SDS011;2105;52.300;9.182;2023-02-22T19:04:56;16.80;;;15.30;;
4182;SDS011;2105;52.300;9.182;2023-02-22T19:07:24;16.30;;;14.87;;
4182;SDS011;2105;52.300;9.182;2023-02-22T19:09:52;17.40;;;15.80;;
4182;SDS011;2105;52.300;9.182;2023-02-22T19:12:19;17.93;;;16.53;;
4182;SDS011;2105;52.300;9.182;2023-02-22T19:14:45;17.60;;;16.20;;
4182;SDS011;2105;52.300;9.182;2023-02-22T19:17:12;18.27;;;16.33;;
4182;SDS011;2105;52.300;9.182;2023-02-22T19:19:40;18.10;;;16.63;;
4182;SDS011;2105;52.300;9.182;2023-02-22T19:22:07;19.67;;;17.57;;
4182;SDS011;2105;52.300;9.182;2023-02-22T19:24:34;17.43;;;15.87;;
4182;SDS011;2105;52.300;9.182;2023-02-22T19:27:02;19.20;;;17.43;;
4182;SDS011;2105;52.300;9.182;2023-02-22T19:29:30;16.40;;;15.03;;
4182;SDS011;2105;52.300;9.182;2023-02-22T19:31:57;17.27;;;15.87;;
4182;SDS011;2105;52.300;9.182;2023-02-22T19:34:23;18.53;;;16.80;;
4182;SDS011;2105;52.300;9.182;2023-02-22T19:36:51;17.77;;;16.27;;
4182;SDS011;2105;52.300;9.182;2023-02-22T19:39:18;18.87;;;17.17;;
4182;SDS011;2105;52.300;9.182;2023-02-22T19:41:46;18.10;;;16.60;;
4182;SDS011;2105;52.300;9.182;2023-02-22T19:44:14;17.90;;;16.40;;
4182;SDS011;2105;52.300;9.182;2023-02-22T19:46:40;20.93;;;16.97;;
4182;SDS011;2105;52.300;9.182;2023-02-22T19:49:07;18.73;;;16.93;;
4182;SDS011;2105;52.300;9.182;2023-02-22T19:51:33;17.60;;;15.90;;
4182;SDS011;2105;52.300;9.182;2023-02-22T19:54:01;17.70;;;16.10;;
4182;SDS011;2105;52.300;9.182;2023-02-22T19:56:29;18.40;;;16.60;;
4182;SDS011;2105;52.300;9.182;2023-02-22T19:58:57;17.93;;;16.13;;
4182;SDS011;2105;52.300;9.182;2023-02-22T20:01:27;18.43;;;16.73;;
4182;SDS011;2105;52.300;9.182;2023-02-22T20:03:57;17.73;;;16.27;;
4182;SDS011;2105;52.300;9.182;2023-02-22T20:06:26;18.30;;;16.63;;
4182;SDS011;2105;52.300;9.182;2023-02-22T20:08:54;18.80;;;16.90;;
4182;SDS011;2105;52.300;9.182;2023-02-22T20:11:22;17.87;;;16.17;;
4182;SDS011;2105;52.300;9.182;2023-02-22T20:13:49;18.00;;;16.47;;
4182;SDS011;2105;52.300;9.182;2023-02-22T20:16:16;21.93;;;19.73;;
4182;SDS011;2105;52.300;9.182;2023-02-22T20:18:44;17.83;;;16.33;;
4182;SDS011;2105;52.300;9.182;2023-02-22T20:21:15;18.10;;;15.80;;
4182;SDS011;2105;52.300;9.182;2023-02-22T20:23:45;18.80;;;17.00;;
4182;SDS011;2105;52.300;9.182;2023-02-22T20:26:14;18.70;;;17.00;;
4182;SDS011;2105;52.300;9.182;2023-02-22T20:28:42;18.93;;;17.03;;
4182;SDS011;2105;52.300;9.182;2023-02-22T20:31:09;18.47;;;16.43;;
4182;SDS011;2105;52.300;9.182;2023-02-22T20:33:37;17.70;;;16.10;;
4182;SDS011;2105;52.300;9.182;2023-02-22T20:36:07;17.30;;;15.70;;
4182;SDS011;2105;52.300;9.182;2023-02-22T20:38:34;18.10;;;16.50;;
4182;SDS011;2105;52.300;9.182;2023-02-22T20:41:03;43.13;;;28.00;;
4182;SDS011;2105;52.300;9.182;2023-02-22T20:43:30;20.10;;;18.10;;
4182;SDS011;2105;52.300;9.182;2023-02-22T20:45:59;17.93;;;16.13;;
4182;SDS011;2105;52.300;9.182;2023-02-22T20:48:26;18.07;;;16.43;;
4182;SDS011;2105;52.300;9.182;2023-02-22T20:50:52;18.00;;;16.40;;
4182;SDS011;2105;52.300;9.182;2023-02-22T20:53:20;17.60;;;16.00;;
4182;SDS011;2105;52.300;9.182;2023-02-22T20:55:47;18.03;;;16.53;;
4182;SDS011;2105;52.300;9.182;2023-02-22T20:58:14;19.13;;;17.20;;
4182;SDS011;2105;52.300;9.182;2023-02-22T21:00:42;17.80;;;16.30;;
4182;SDS011;2105;52.300;9.182;2023-02-22T21:03:08;19.00;;;17.00;;
4182;SDS011;2105;52.300;9.182;2023-02-22T21:05:39;18.30;;;16.63;;
4182;SDS011;2105;52.300;9.182;2023-02-22T21:08:06;18.73;;;17.13;;
4182;SDS011;2105;52.300;9.182;2023-02-22T21:10:35;19.20;;;17.40;;
4182;SDS011;2105;52.300;9.182;2023-02-22T21:13:06;19.20;;;17.23;;
4182;SDS011;2105;52.300;9.182;2023-02-22T21:15:33;19.60;;;17.70;;
4182;SDS011;2105;52.300;9.182;2023-02-22T21:18:00;18.97;;;17.27;;
4182;SDS011;2105;52.300;9.182;2023-02-22T21:20:26;19.37;;;17.53;;
4182;SDS011;2105;52.300;9.182;2023-02-22T21:22:53;19.77;;;17.70;;
4182;SDS011;2105;52.300;9.182;2023-02-22T21:25:20;18.90;;;17.00;;
4182;SDS011;2105;52.300;9.182;2023-02-22T21:27:50;19.50;;;17.37;;
4182;SDS011;2105;52.300;9.182;2023-02-22T21:30:17;18.97;;;17.27;;
4182;SDS011;2105;52.300;9.182;2023-02-22T21:32:45;20.37;;;17.87;;
4182;SDS011;2105;52.300;9.182;2023-02-22T21:35:16;19.37;;;17.53;;
4182;SDS011;2105;52.300;9.182;2023-02-22T21:37:45;19.43;;;17.63;;
4182;SDS011;2105;52.300;9.182;2023-02-22T21:40:12;20.23;;;18.23;;
4182;SDS011;2105;52.300;9.182;2023-02-22T21:42:43;19.97;;;18.13;;
4182;SDS011;2105;52.300;9.182;2023-02-22T21:45:13;19.87;;;17.87;;
4182;SDS011;2105;52.300;9.182;2023-02-22T21:47:40;19.37;;;17.63;;
4182;SDS011;2105;52.300;9.182;2023-02-22T21:50:07;20.17;;;18.23;;
4182;SDS011;2105;52.300;9.182;2023-02-22T21:52:34;20.80;;;18.77;;
4182;SDS011;2105;52.300;9.182;2023-02-22T21:55:02;21.53;;;18.73;;
4182;SDS011;2105;52.300;9.182;2023-02-22T21:57:30;20.23;;;18.00;;
4182;SDS011;2105;52.300;9.182;2023-02-22T21:59:57;19.90;;;17.90;;
4182;SDS011;2105;52.300;9.182;2023-02-22T22:02:25;23.67;;;19.10;;
4182;SDS011;2105;52.300;9.182;2023-02-22T22:04:53;21.07;;;18.80;;
4182;SDS011;2105;52.300;9.182;2023-02-22T22:07:20;20.77;;;18.80;;
4182;SDS011;2105;52.300;9.182;2023-02-22T22:09:47;22.03;;;19.67;;